This is the latest recevied weather packets stored in our database for station/object EMGATE. If no packets are shown the sender has not sent any weather packets the latest 10 day(s).
| Time | Temp. | Humidity | Pressure | Rain* | Wind** | Luminosity | Snow |
|---|---|---|---|---|---|---|---|
| 1777829655 | 8.33° C | 48% | 1008.1 hPa | 0 mm | - | - | - |
| 1777828755 | 9.44° C | 45% | 1008.1 hPa | 0 mm | - | - | - |
| 1777827855 | 8.89° C | 48% | 1008.4 hPa | 0 mm | - | - | - |
| 1777826955 | 8.89° C | 45% | 1008.6 hPa | 0 mm | - | - | - |
| 1777826055 | 8.89° C | 47% | 1008.8 hPa | 0 mm | - | - | - |
| 1777825155 | 8.89° C | 44% | 1009 hPa | 0 mm | - | - | - |
| 1777824255 | 9.44° C | 47% | 1009.2 hPa | 0 mm | - | - | - |
| 1777823355 | 9.44° C | 46% | 1009.5 hPa | 0 mm | - | - | - |
| 1777822455 | 9.44° C | 49% | 1009.5 hPa | 0 mm | - | - | - |
| 1777821555 | 9.44° C | 44% | 1009.7 hPa | 0 mm | - | - | - |
| 1777820656 | 10.56° C | 45% | 1009.9 hPa | 0 mm | - | - | - |
| 1777819755 | 10.56° C | 43% | 1010.2 hPa | 0 mm | - | - | - |
| 1777818855 | 10.56° C | 43% | 1010.4 hPa | 0 mm | - | - | - |
| 1777817956 | 10° C | 44% | 1010.5 hPa | 0 mm | - | - | - |
| 1777817056 | 9.44° C | 45% | 1010.7 hPa | 0 mm | - | - | - |
| 1777816156 | 8.89° C | 44% | 1010.9 hPa | 0 mm | - | - | - |
| 1777815256 | 8.89° C | 50% | 1011 hPa | 0 mm | - | - | - |
| 1777814356 | 8.33° C | 53% | 1011.2 hPa | 0 mm | - | - | - |
| 1777813456 | 7.78° C | 54% | 1011.3 hPa | 0 mm | - | - | - |
| 1777812556 | 7.78° C | 57% | 1011.3 hPa | 0 mm | - | - | - |
| 1777811656 | 7.22° C | 60% | 1011.3 hPa | 0 mm | - | - | - |
| 1777810756 | 6.67° C | 61% | 1011.3 hPa | 0 mm | - | - | - |
| 1777809856 | 5° C | 68% | 1011.3 hPa | 0 mm | - | - | - |
| 1777808956 | 3.89° C | 74% | 1011.3 hPa | 0 mm | - | - | - |
| 1777808056 | 3.33° C | 80% | 1011.3 hPa | 0 mm | - | - | - |
* Rain latest hour (hover to see other rain measurements)
** Current wind speed in m/s (hover to see current wind gust speed)